TJSJ/SJU METAR and TAF weather

Enter ICAO airport designator
Station Type Date Time Source
TJSJ METAR 2018/12/13 19:56 UTC NOAA

TJSJ 131956Z 08017KT 10SM SCT039 28/22 A3005 RMK AO2 SLP173 SHRA DSNT S T02780217


Station Type Date Time Source
TJSJ Decoded METAR 2018/12/13 19:56 UTC NOAA

San Juan, Luis Munoz Marin International Airport, PR, United States (TJSJ) 18-27N 066-00W
Dec 13, 2018 - 02:56 PM EST / 2018.12.13 1956 UTC
Wind: from the E (080 degrees) at 20 MPH (17 KT):0
Visibility: 10 mile(s):0
Sky conditions: partly cloudy
Temperature: 82.0 F (27.8 C)
Dew Point: 71.1 F (21.7 C)
Relative Humidity: 69%
Pressure (altimeter): 30.05 in. Hg (1017 hPa)
ob: TJSJ 131956Z 08017KT 10SM SCT039 28/22 A3005 RMK AO2 SLP173 SHRA DSNT S T02780217
cycle: 20

Station Type Date Time Source
TJSJ TAF 2018/12/13 18:42 UTC NOAA

TAF TJSJ 131737Z 1318/1418 07017G22KT P6SM VCSH FEW025 SCT050
FM132330 09010KT P6SM FEW030
FM140800 10006KT P6SM VCSH SCT025 BKN050
TEMPO 1408/1412 VRB12G19KT -SHRA SCT024 BKN040
FM141430 07016G22KT P6SM FEW025 SCT050


Example: see airport list